createdAt,value
2017-04-20T00:00:06.320Z,97.72
2017-04-20T00:01:18.830Z,97.63
2017-04-20T00:02:31.347Z,98.28
2017-04-20T00:03:43.868Z,98.38
2017-04-20T00:04:56.413Z,97.72
2017-04-20T00:06:08.949Z,97.72
2017-04-20T00:07:21.452Z,98
2017-04-20T00:08:33.923Z,98.28
2017-04-20T00:09:46.146Z,98.1
2017-04-20T00:10:58.690Z,98.28
2017-04-20T00:12:11.231Z,98.28
2017-04-20T00:13:23.307Z,98.28
2017-04-20T00:14:36.073Z,98
2017-04-20T00:15:48.103Z,98.28
2017-04-20T00:17:00.623Z,98.1
2017-04-20T00:18:13.158Z,98.19
2017-04-20T00:19:25.679Z,98.57
2017-04-20T00:20:38.183Z,98.28
2017-04-20T00:21:50.698Z,98.47
2017-04-20T00:23:02.925Z,98.57
2017-04-20T00:24:15.464Z,98.28
2017-04-20T00:25:27.995Z,98.19
2017-04-20T00:26:40.207Z,98.33
2017-04-20T00:27:52.400Z,98.33
2017-04-20T00:29:04.884Z,98.05
2017-04-20T00:30:17.420Z,98.14
2017-04-20T00:31:29.945Z,98.61
2017-04-20T00:32:42.712Z,98.52
2017-04-20T00:33:55.265Z,98.43
2017-04-20T00:35:07.483Z,99.08
2017-04-20T00:36:19.957Z,98.71
2017-04-20T00:37:32.454Z,98.9
2017-04-20T00:38:44.948Z,98.9
2017-04-20T00:39:57.520Z,98.8
2017-04-20T00:41:10.058Z,98.52
2017-04-20T00:42:22.560Z,98.9
2017-04-20T00:43:34.803Z,98.8
2017-04-20T00:44:46.725Z,98.9
2017-04-20T00:45:59.251Z,99.18
2017-04-20T00:47:11.813Z,98.8
2017-04-20T00:48:24.008Z,99.08
2017-04-20T00:49:36.526Z,99.18
2017-04-20T00:50:48.733Z,99.08
2017-04-20T00:52:00.654Z,99.46
2017-04-20T00:53:13.149Z,99.56
2017-04-20T00:54:25.664Z,99.46
2017-04-20T00:55:38.191Z,99.56
2017-04-20T00:56:50.710Z,99.37
2017-04-20T00:58:02.934Z,99.08
2017-04-20T00:59:15.431Z,99.56
2017-04-20T01:00:27.932Z,99.46
2017-04-20T01:01:40.486Z,99.65
2017-04-20T01:02:53.314Z,99.56
2017-04-20T01:04:05.815Z,99.46
2017-04-20T01:05:18.349Z,99.65
2017-04-20T01:06:30.257Z,99.94
2017-04-20T01:07:42.748Z,99.94
2017-04-20T01:08:54.968Z,99.94
2017-04-20T01:10:07.482Z,99.99
2017-04-20T01:11:19.977Z,99.94
2017-04-20T01:12:32.532Z,99.99
2017-04-20T01:13:45.052Z,99.99
2017-04-20T01:14:57.558Z,99.99
2017-04-20T01:16:10.388Z,99.65
2017-04-20T01:17:22.895Z,99.84
2017-04-20T01:18:35.394Z,99.99
2017-04-20T01:19:48.049Z,99.75
2017-04-20T01:21:00.251Z,99.65
2017-04-20T01:22:12.769Z,99.99
2017-04-20T01:23:25.269Z,99.99
2017-04-20T01:24:37.793Z,99.75
2017-04-20T01:25:50.304Z,99.99
2017-04-20T01:27:03.056Z,99.94
2017-04-20T01:28:15.257Z,99.94
2017-04-20T01:29:27.778Z,99.99
2017-04-20T01:30:40.288Z,99.65
2017-04-20T01:31:52.494Z,99.56
2017-04-20T01:33:05.041Z,99.99
2017-04-20T01:34:17.557Z,99.99
2017-04-20T01:35:29.802Z,99.84
2017-04-20T01:36:42.097Z,99.84
2017-04-20T01:37:54.325Z,99.84
2017-04-20T01:39:06.863Z,99.99
2017-04-20T01:40:19.390Z,99.99
2017-04-20T01:41:31.928Z,99.99
2017-04-20T01:42:44.150Z,99.99
2017-04-20T01:43:56.670Z,99.94
2017-04-20T01:45:09.176Z,99.99
2017-04-20T01:46:21.685Z,99.99
2017-04-20T01:47:33.863Z,99.99
2017-04-20T01:48:46.413Z,99.94
2017-04-20T01:49:58.605Z,99.94
2017-04-20T01:51:11.152Z,99.99
2017-04-20T01:52:23.671Z,99.99
2017-04-20T01:53:36.368Z,99.99
2017-04-20T01:54:48.888Z,99.99
2017-04-20T01:56:01.088Z,99.99
2017-04-20T01:57:13.630Z,99.99
2017-04-20T01:58:25.821Z,99.99
2017-04-20T01:59:38.339Z,99.99
2017-04-20T02:00:50.860Z,99.99
2017-04-20T02:02:03.392Z,99.99
2017-04-20T02:03:15.912Z,99.99
2017-04-20T02:04:27.516Z,99.99
2017-04-20T02:05:39.727Z,99.99
2017-04-20T02:06:51.930Z,99.99
2017-04-20T02:08:04.500Z,99.99
2017-04-20T02:09:17.032Z,99.99
2017-04-20T02:10:29.853Z,99.99
2017-04-20T02:11:42.084Z,99.99
2017-04-20T02:12:54.005Z,99.99
2017-04-20T02:14:05.927Z,99.99
2017-04-20T02:15:18.444Z,99.99
2017-04-20T02:16:30.915Z,99.99
2017-04-20T02:17:43.411Z,99.99
2017-04-20T02:18:55.952Z,99.99
2017-04-20T02:20:08.477Z,99.99
2017-04-20T02:21:20.994Z,99.99
2017-04-20T02:22:33.514Z,99.99
2017-04-20T02:23:45.732Z,99.99
2017-04-20T02:24:58.232Z,99.99
2017-04-20T02:26:10.513Z,99.99
2017-04-20T02:27:23.074Z,99.99
2017-04-20T02:28:35.569Z,99.99
2017-04-20T02:29:48.098Z,99.99
2017-04-20T02:31:00.366Z,99.99
2017-04-20T02:32:12.554Z,99.99
2017-04-20T02:33:25.079Z,99.99
2017-04-20T02:34:37.286Z,99.99
2017-04-20T02:35:49.799Z,99.99
2017-04-20T02:37:02.290Z,99.99
2017-04-20T02:38:14.817Z,99.99
2017-04-20T02:39:27.008Z,99.99
2017-04-20T02:40:39.510Z,99.99
2017-04-20T02:41:51.725Z,99.99
2017-04-20T02:43:04.496Z,99.99
2017-04-20T02:44:17.016Z,99.99
2017-04-20T02:45:29.812Z,99.99
2017-04-20T02:46:42.341Z,99.99
2017-04-20T02:47:54.877Z,99.99
2017-04-20T02:49:07.683Z,99.99
2017-04-20T02:50:19.884Z,99.99
2017-04-20T02:51:32.403Z,99.99
2017-04-20T02:52:44.896Z,99.99
2017-04-20T02:53:57.114Z,99.99
2017-04-20T02:55:09.334Z,99.99
2017-04-20T02:56:21.859Z,99.99
2017-04-20T02:57:34.400Z,99.99
2017-04-20T02:58:46.954Z,99.99
2017-04-20T02:59:59.494Z,99.99
2017-04-20T03:01:12.016Z,99.99
2017-04-20T03:02:24.230Z,99.99
2017-04-20T03:03:36.855Z,99.99
2017-04-20T03:04:49.680Z,99.99
2017-04-20T03:06:02.178Z,99.99
2017-04-20T03:07:14.399Z,99.99
2017-04-20T03:08:26.916Z,99.99
2017-04-20T03:09:39.435Z,99.99
2017-04-20T03:10:51.630Z,99.99
2017-04-20T03:12:04.129Z,99.99
2017-04-20T03:13:16.676Z,99.99
2017-04-20T03:14:29.196Z,99.99
2017-04-20T03:15:41.435Z,99.99
2017-04-20T03:16:53.664Z,99.99
2017-04-20T03:18:05.882Z,99.99
2017-04-20T03:19:18.372Z,99.99
2017-04-20T03:20:30.902Z,99.99
2017-04-20T03:21:43.416Z,99.99
2017-04-20T03:22:55.965Z,99.99
2017-04-20T03:24:08.478Z,99.99
2017-04-20T03:25:20.978Z,99.99
2017-04-20T03:26:33.495Z,99.99
2017-04-20T03:27:45.978Z,99.99
2017-04-20T03:28:58.495Z,99.99
2017-04-20T03:30:11.060Z,99.99
2017-04-20T03:31:23.610Z,99.99
2017-04-20T03:32:35.807Z,99.99
2017-04-20T03:33:48.306Z,99.99
2017-04-20T03:35:00.820Z,99.99
2017-04-20T03:36:12.741Z,99.99
2017-04-20T03:37:25.840Z,99.99
2017-04-20T03:38:38.441Z,99.99
2017-04-20T03:39:50.778Z,99.99
2017-04-20T03:41:02.988Z,99.99
2017-04-20T03:42:15.475Z,99.99
2017-04-20T03:43:27.981Z,99.99
2017-04-20T03:44:40.194Z,99.99
2017-04-20T03:45:52.412Z,99.99
2017-04-20T03:47:04.603Z,99.99
2017-04-20T03:48:16.858Z,99.99
2017-04-20T03:49:29.382Z,99.99
2017-04-20T03:50:41.895Z,99.99
2017-04-20T03:51:54.395Z,99.99
2017-04-20T03:53:06.952Z,99.99
2017-04-20T03:54:19.159Z,99.99
2017-04-20T03:55:31.679Z,99.99
2017-04-20T03:56:44.403Z,99.99
2017-04-20T03:57:57.049Z,99.99
2017-04-20T03:59:09.819Z,99.99
2017-04-20T04:00:22.318Z,99.99
2017-04-20T04:01:34.859Z,99.99
2017-04-20T04:02:47.374Z,99.99
2017-04-20T04:03:59.869Z,99.99
2017-04-20T04:05:12.372Z,99.99
2017-04-20T04:06:24.892Z,99.99
2017-04-20T04:07:37.443Z,99.99
2017-04-20T04:08:49.956Z,99.99
2017-04-20T04:10:02.501Z,99.99
2017-04-20T04:11:15.022Z,99.99
2017-04-20T04:12:27.542Z,99.99
2017-04-20T04:13:40.189Z,99.99
2017-04-20T04:14:52.817Z,99.99
2017-04-20T04:16:05.510Z,99.99
2017-04-20T04:17:18.009Z,99.99
2017-04-20T04:18:30.548Z,99.99
2017-04-20T04:19:43.058Z,99.99
2017-04-20T04:20:55.502Z,99.99
2017-04-20T04:22:08.015Z,99.99
2017-04-20T04:23:20.535Z,99.99
2017-04-20T04:24:33.030Z,99.99
2017-04-20T04:25:45.569Z,99.99
2017-04-20T04:26:57.765Z,99.99
2017-04-20T04:28:10.277Z,99.99
2017-04-20T04:29:22.811Z,99.99
2017-04-20T04:30:35.381Z,99.99
2017-04-20T04:31:47.924Z,99.99
2017-04-20T04:33:00.527Z,99.99
2017-04-20T04:34:13.018Z,99.99
2017-04-20T04:35:24.929Z,99.99
2017-04-20T04:36:37.119Z,99.99
2017-04-20T04:37:49.603Z,99.99
2017-04-20T04:39:02.111Z,99.99
2017-04-20T04:40:14.603Z,99.99
2017-04-20T04:41:27.106Z,99.99
2017-04-20T04:42:39.556Z,99.99
2017-04-20T04:43:52.094Z,99.99
2017-04-20T04:45:04.616Z,99.99
2017-04-20T04:46:17.149Z,99.99
2017-04-20T04:47:29.078Z,99.99
2017-04-20T04:48:41.622Z,99.99
2017-04-20T04:49:53.837Z,99.99
2017-04-20T04:51:06.488Z,99.99
2017-04-20T04:52:18.997Z,99.99
2017-04-20T04:53:31.205Z,99.99
2017-04-20T04:54:43.697Z,99.99
2017-04-20T04:55:56.218Z,99.99
2017-04-20T04:57:08.746Z,99.99
2017-04-20T04:58:21.246Z,99.99
2017-04-20T04:59:33.434Z,99.99
2017-04-20T05:00:45.634Z,99.99
2017-04-20T05:01:58.151Z,99.99
2017-04-20T05:03:10.079Z,99.99
2017-04-20T05:04:22.592Z,99.99
2017-04-20T05:05:35.084Z,99.99
2017-04-20T05:06:47.306Z,99.99
2017-04-20T05:07:59.810Z,99.99
2017-04-20T05:09:12.352Z,99.99
2017-04-20T05:10:25.072Z,99.99
2017-04-20T05:11:37.697Z,99.99
2017-04-20T05:12:49.617Z,99.99
2017-04-20T05:14:02.142Z,99.99
2017-04-20T05:15:14.677Z,99.99
2017-04-20T05:16:27.209Z,99.99
2017-04-20T05:17:39.447Z,99.99
2017-04-20T05:18:51.974Z,99.99
2017-04-20T05:20:04.496Z,99.99
2017-04-20T05:21:16.139Z,99.99
2017-04-20T05:22:28.637Z,99.99
2017-04-20T05:23:41.162Z,99.99
2017-04-20T05:24:53.705Z,99.99
2017-04-20T05:26:06.223Z,99.99
2017-04-20T05:27:18.890Z,99.99
2017-04-20T05:28:31.410Z,99.99
2017-04-20T05:29:43.936Z,99.99
2017-04-20T05:30:56.460Z,99.99
2017-04-20T05:32:08.703Z,99.99
2017-04-20T05:33:20.893Z,99.99
2017-04-20T05:34:33.122Z,99.71
2017-04-20T05:35:45.648Z,99.99
2017-04-20T05:36:57.891Z,99.99
2017-04-20T05:38:10.085Z,99.99
2017-04-20T05:39:22.609Z,99.89
2017-04-20T05:40:35.105Z,99.99
2017-04-20T05:41:47.621Z,99.8
2017-04-20T05:43:00.162Z,99.8
2017-04-20T05:44:12.690Z,99.89
2017-04-20T05:45:25.228Z,99.8
2017-04-20T05:46:37.753Z,99.61
2017-04-20T05:47:50.474Z,99.71
2017-04-20T05:49:02.745Z,99.8
2017-04-20T05:50:15.288Z,99.99
2017-04-20T05:51:27.837Z,99.8
2017-04-20T05:52:40.356Z,99.89
2017-04-20T05:53:52.861Z,99.42
2017-04-20T05:55:05.366Z,99.33
2017-04-20T05:56:17.617Z,99.99
2017-04-20T05:57:29.834Z,99.14
2017-04-20T05:58:42.592Z,98.38
2017-04-20T05:59:55.084Z,98.95
2017-04-20T06:01:07.601Z,98.47
2017-04-20T06:02:19.821Z,97.81
2017-04-20T06:03:32.349Z,98.33
2017-04-20T06:04:44.567Z,97.49
2017-04-20T06:05:57.092Z,98.52
2017-04-20T06:07:09.852Z,97.3
2017-04-20T06:08:22.075Z,96.54
2017-04-20T06:09:34.601Z,96.92
2017-04-20T06:10:47.117Z,96.45
2017-04-20T06:11:59.643Z,96.64
2017-04-20T06:13:11.839Z,96.45
2017-04-20T06:14:24.055Z,96.26
2017-04-20T06:15:36.283Z,96.26
2017-04-20T06:16:48.826Z,96.21
2017-04-20T06:18:01.342Z,95.26
2017-04-20T06:19:13.305Z,94.13
2017-04-20T06:20:26.067Z,94.51
2017-04-20T06:21:38.580Z,94.42
2017-04-20T06:22:50.791Z,93.85
2017-04-20T06:24:02.998Z,92.33
2017-04-20T06:25:15.352Z,92.19
2017-04-20T06:26:27.936Z,91.72
2017-04-20T06:27:40.135Z,92.19
2017-04-20T06:28:52.653Z,90.25
2017-04-20T06:30:04.856Z,89.96
2017-04-20T06:31:17.063Z,88.49
2017-04-20T06:32:29.590Z,87.45
2017-04-20T06:33:41.790Z,87.54
2017-04-20T06:34:54.337Z,87.4
2017-04-20T06:36:06.889Z,86.83
2017-04-20T06:37:19.450Z,88.1
2017-04-20T06:38:31.645Z,83.84
2017-04-20T06:39:43.842Z,81.7
2017-04-20T06:40:56.373Z,78.66
2017-04-20T06:42:09.198Z,78.85
2017-04-20T06:43:21.741Z,78.32
2017-04-20T06:44:34.403Z,75.57
2017-04-20T06:45:46.932Z,72.66
2017-04-20T06:46:59.249Z,69.71
2017-04-20T06:48:11.463Z,68.86
2017-04-20T06:49:23.983Z,67.72
2017-04-20T06:50:36.509Z,66.24
2017-04-20T06:51:49.029Z,65.09
2017-04-20T06:53:01.574Z,65.38
2017-04-20T06:54:14.102Z,64.24
2017-04-20T06:55:26.320Z,63.39
2017-04-20T06:56:38.845Z,63.48
2017-04-20T06:57:51.362Z,63.95
2017-04-20T06:59:03.583Z,64.08
2017-04-20T07:00:16.078Z,63.32
2017-04-20T07:01:28.325Z,63.13
2017-04-20T07:02:40.867Z,62.08
2017-04-20T07:03:53.398Z,61.99
2017-04-20T07:05:06.188Z,61.42
2017-04-20T07:06:18.959Z,61.32
2017-04-20T07:07:31.458Z,61.32
2017-04-20T07:08:43.997Z,61.93
2017-04-20T07:09:56.252Z,61.64
2017-04-20T07:11:08.188Z,60.97
2017-04-20T07:12:20.710Z,60.41
2017-04-20T07:13:32.967Z,59.93
2017-04-20T07:14:45.510Z,60.31
2017-04-20T07:15:58.043Z,61.55
2017-04-20T07:17:10.543Z,61.07
2017-04-20T07:18:22.793Z,60.21
2017-04-20T07:19:35.331Z,60.41
2017-04-20T07:20:47.560Z,58.98
2017-04-20T07:22:00.105Z,59.77
2017-04-20T07:23:12.343Z,59.48
2017-04-20T07:24:25.107Z,59.67
2017-04-20T07:25:37.696Z,59.1
2017-04-20T07:26:50.286Z,59.29
2017-04-20T07:28:02.563Z,58.53
2017-04-20T07:29:15.099Z,58.06
2017-04-20T07:30:27.594Z,58.62
2017-04-20T07:31:39.815Z,58.65
2017-04-20T07:32:52.343Z,57.7
2017-04-20T07:34:04.257Z,57.6
2017-04-20T07:35:16.461Z,57.8
2017-04-20T07:36:29.323Z,57.6
2017-04-20T07:37:41.253Z,56.78
2017-04-20T07:38:53.776Z,55.73
2017-04-20T07:40:06.048Z,55.92
2017-04-20T07:41:17.969Z,56.87
2017-04-20T07:42:30.188Z,55.92
2017-04-20T07:43:41.841Z,56.11
2017-04-20T07:44:54.396Z,55.54
2017-04-20T07:46:06.651Z,56.68
2017-04-20T07:47:18.920Z,56.02
2017-04-20T07:48:31.136Z,55.19
2017-04-20T07:49:43.382Z,54.3
2017-04-20T07:50:55.633Z,54.61
2017-04-20T07:52:07.589Z,55.09
2017-04-20T07:53:19.824Z,55.09
2017-04-20T07:54:31.763Z,55.38
2017-04-20T07:55:44.292Z,53.88
2017-04-20T07:56:56.230Z,52.8
2017-04-20T07:58:08.133Z,52.92
2017-04-20T07:59:20.383Z,54.07
2017-04-20T08:00:32.631Z,51.88
2017-04-20T08:01:44.875Z,51.12
2017-04-20T08:02:57.412Z,51.95
2017-04-20T08:04:09.133Z,53.02
2017-04-20T08:05:21.451Z,53.02
2017-04-20T08:06:33.678Z,53.41
2017-04-20T08:07:45.604Z,53.85
2017-04-20T08:08:57.846Z,54.52
2017-04-20T08:10:09.731Z,54.78
2017-04-20T08:11:22.281Z,54.49
2017-04-20T08:12:34.813Z,54.27
2017-04-20T08:13:47.058Z,55.04
2017-04-20T08:14:59.001Z,56.85
2017-04-20T08:16:10.897Z,56.72
2017-04-20T08:17:23.436Z,56.7
2017-04-20T08:18:35.667Z,56.79
2017-04-20T08:19:47.301Z,57.62
2017-04-20T08:20:59.822Z,58.28
2017-04-20T08:22:12.050Z,59.61
2017-04-20T08:23:24.017Z,59.9
2017-04-20T08:24:36.352Z,59.61
2017-04-20T08:25:48.443Z,59.9
2017-04-20T08:27:00.381Z,60.16
2017-04-20T08:28:12.924Z,61.01
2017-04-20T08:29:25.156Z,62.53
2017-04-20T08:30:37.716Z,61.96
2017-04-20T08:31:49.939Z,62.05
2017-04-20T08:33:01.608Z,61.96
2017-04-20T08:34:13.538Z,62.31
2017-04-20T08:35:25.482Z,63.35
2017-04-20T08:36:37.723Z,64.87
2017-04-20T08:37:50.253Z,65.25
2017-04-20T08:39:02.487Z,65.06
2017-04-20T08:40:15.018Z,64.78
2017-04-20T08:41:27.257Z,66.01
2017-04-20T08:42:40.150Z,66.77
2017-04-20T08:43:52.523Z,65.35
2017-04-20T08:45:04.973Z,65.44
2017-04-20T08:46:17.198Z,65.44
2017-04-20T08:47:29.419Z,64.87
2017-04-20T08:48:41.066Z,65.44
2017-04-20T08:49:53.574Z,65.73
2017-04-20T08:51:05.203Z,64.87
2017-04-20T08:52:17.453Z,64.78
2017-04-20T08:53:29.674Z,65.03
2017-04-20T08:54:41.616Z,66.11
2017-04-20T08:55:53.547Z,65.5
2017-04-20T08:57:06.050Z,65.6
2017-04-20T08:58:18.246Z,66.46
2017-04-20T08:59:30.742Z,66.87
2017-04-20T09:00:42.649Z,67.06
2017-04-20T09:01:54.897Z,68.1
2017-04-20T09:03:06.215Z,67.44
2017-04-20T09:04:18.783Z,67.63
2017-04-20T09:05:31.332Z,68.77
2017-04-20T09:06:43.854Z,67.72
2017-04-20T09:07:56.375Z,65.82
2017-04-20T09:09:08.621Z,65.63
2017-04-20T09:10:21.162Z,65.16
2017-04-20T09:11:32.802Z,64.4
2017-04-20T09:12:45.347Z,64.81
2017-04-20T09:13:57.604Z,64.24
2017-04-20T09:15:09.215Z,64.62
2017-04-20T09:16:21.764Z,65.47
2017-04-20T09:17:33.689Z,65.38
2017-04-20T09:18:45.627Z,63.39
2017-04-20T09:19:57.848Z,62.62
2017-04-20T09:21:10.097Z,62.24
2017-04-20T09:22:22.323Z,61.52
2017-04-20T09:23:34.229Z,61.52
2017-04-20T09:24:46.582Z,61.61
2017-04-20T09:25:59.109Z,61.42
2017-04-20T09:27:10.727Z,61.42
2017-04-20T09:28:22.951Z,61.52
2017-04-20T09:29:34.266Z,61.23
2017-04-20T09:30:46.795Z,61.52
2017-04-20T09:31:59.340Z,61.32
2017-04-20T09:33:11.820Z,60.66
2017-04-20T09:34:23.177Z,60.18
2017-04-20T09:35:34.806Z,61.23
2017-04-20T09:36:47.052Z,61.32
2017-04-20T09:37:58.964Z,60.57
2017-04-20T09:39:10.587Z,59.9
2017-04-20T09:40:23.133Z,59.42
2017-04-20T09:41:35.379Z,59.71
2017-04-20T09:42:47.903Z,59.8
2017-04-20T09:43:59.780Z,59.61
2017-04-20T09:45:12.176Z,61.04
2017-04-20T09:46:24.795Z,61.13
2017-04-20T09:47:37.312Z,61.64
2017-04-20T09:48:49.536Z,59.9
2017-04-20T09:50:02.096Z,58.66
2017-04-20T09:51:14.626Z,58.76
2017-04-20T09:52:26.553Z,58.37
2017-04-20T09:53:39.070Z,57.65
2017-04-20T09:54:51.316Z,57.74
2017-04-20T09:56:03.850Z,58.22
2017-04-20T09:57:16.108Z,58.4
2017-04-20T09:58:27.747Z,58.4
2017-04-20T09:59:39.963Z,58.79
2017-04-20T10:00:51.887Z,57.45
2017-04-20T10:02:03.844Z,56.79
2017-04-20T10:03:15.762Z,57.48
2017-04-20T10:04:27.983Z,57.67
2017-04-20T10:05:40.496Z,57.67
2017-04-20T10:06:51.522Z,55.58
2017-04-20T10:08:03.443Z,55.87
2017-04-20T10:09:15.666Z,55.87
2017-04-20T10:10:27.631Z,56.24
2017-04-20T10:11:39.557Z,56.63
2017-04-20T10:12:51.801Z,56.92
2017-04-20T10:14:04.051Z,58.15
2017-04-20T10:15:15.971Z,58.06
2017-04-20T10:16:27.889Z,57.67
2017-04-20T10:17:39.805Z,57.1
2017-04-20T10:18:51.428Z,57.1
2017-04-20T10:20:03.336Z,57.58
2017-04-20T10:21:15.547Z,57.77
2017-04-20T10:22:27.743Z,57.87
2017-04-20T10:23:39.367Z,57.6
2017-04-20T10:24:51.613Z,57.58
2017-04-20T10:26:03.502Z,56.63
2017-04-20T10:27:15.769Z,56.72
2017-04-20T10:28:27.823Z,55.77
2017-04-20T10:29:39.743Z,55.68
2017-04-20T10:30:51.986Z,56.27
2017-04-20T10:32:04.205Z,56.37
2017-04-20T10:33:16.125Z,56.46
2017-04-20T10:34:27.452Z,56.18
2017-04-20T10:35:39.368Z,55.54
2017-04-20T10:36:51.570Z,54.68
2017-04-20T10:38:03.482Z,53.92
2017-04-20T10:39:15.390Z,53.66
2017-04-20T10:40:27.626Z,51.02
2017-04-20T10:41:39.255Z,50.54
2017-04-20T10:42:50.594Z,48.47
2017-04-20T10:44:02.846Z,46.39
2017-04-20T10:45:15.063Z,46.61
2017-04-20T10:46:26.705Z,47.47
2017-04-20T10:47:38.029Z,46.72
2017-04-20T10:48:49.362Z,44.55
2017-04-20T10:50:01.742Z,44.65
2017-04-20T10:51:13.043Z,43.8
2017-04-20T10:52:24.695Z,43.06
2017-04-20T10:53:36.656Z,43.06
2017-04-20T10:54:48.584Z,42.13
2017-04-20T10:56:00.499Z,42.41
2017-04-20T10:57:11.843Z,42.6
2017-04-20T10:58:24.064Z,43.08
2017-04-20T10:59:36.297Z,42.22
2017-04-20T11:00:48.505Z,42.68
2017-04-20T11:02:00.152Z,42.77
2017-04-20T11:03:12.384Z,43.52
2017-04-20T11:04:24.293Z,43.33
2017-04-20T11:05:36.517Z,44
2017-04-20T11:06:48.450Z,42.97
2017-04-20T11:08:00.393Z,42.11
2017-04-20T11:09:12.128Z,40.98
2017-04-20T11:10:24.688Z,40.98
2017-04-20T11:11:36.402Z,40.02
2017-04-20T11:12:48.351Z,40.33
2017-04-20T11:14:00.311Z,40.33
2017-04-20T11:15:11.657Z,40.16
2017-04-20T11:16:23.878Z,39.98
2017-04-20T11:17:36.078Z,39.62
2017-04-20T11:18:48.657Z,38.59
2017-04-20T11:20:00.599Z,38.02
2017-04-20T11:21:12.247Z,37.26
2017-04-20T11:22:23.887Z,36.47
2017-04-20T11:23:36.104Z,36.38
2017-04-20T11:24:48.007Z,36.28
2017-04-20T11:26:00.274Z,36.57
2017-04-20T11:27:12.203Z,36.66
2017-04-20T11:28:23.537Z,36.49
2017-04-20T11:29:35.746Z,36.01
2017-04-20T11:30:47.712Z,35.89
2017-04-20T11:31:59.386Z,35.22
2017-04-20T11:33:11.035Z,35.32
2017-04-20T11:34:22.674Z,35.4
2017-04-20T11:35:34.621Z,35.49
2017-04-20T11:36:46.546Z,36.24
2017-04-20T11:37:58.180Z,36.72
2017-04-20T11:39:10.412Z,38.43
2017-04-20T11:40:22.053Z,38.91
2017-04-20T11:41:33.697Z,38.91
2017-04-20T11:42:45.646Z,38.14
2017-04-20T11:43:57.873Z,37.28
2017-04-20T11:45:10.106Z,36.32
2017-04-20T11:46:22.353Z,35.67
2017-04-20T11:47:34.560Z,34.9
2017-04-20T11:48:46.801Z,34.73
2017-04-20T11:49:58.742Z,34.63
2017-04-20T11:51:10.694Z,34.45
2017-04-20T11:52:22.335Z,33.78
2017-04-20T11:53:34.291Z,33.32
2017-04-20T11:54:46.212Z,32.95
2017-04-20T11:55:58.147Z,33.24
2017-04-20T11:57:09.778Z,33.74
2017-04-20T11:58:21.735Z,33.26
2017-04-20T11:59:33.670Z,33.07
2017-04-20T12:00:45.635Z,32.01
2017-04-20T12:01:57.882Z,32.28
2017-04-20T12:03:09.522Z,32.18
2017-04-20T12:04:21.149Z,32.95
2017-04-20T12:05:32.769Z,33.03
2017-04-20T12:06:44.370Z,33.61
2017-04-20T12:07:55.732Z,33.61
2017-04-20T12:09:07.986Z,33.21
2017-04-20T12:10:19.948Z,34.06
2017-04-20T12:11:31.601Z,34.14
2017-04-20T12:12:43.545Z,34.71
2017-04-20T12:13:56.045Z,35.55
2017-04-20T12:15:08.288Z,35.75
2017-04-20T12:16:20.575Z,36.49
2017-04-20T12:17:32.447Z,36.57
2017-04-20T12:18:44.057Z,37.63
2017-04-20T12:19:55.671Z,37.99
2017-04-20T12:21:07.892Z,38.47
2017-04-20T12:22:19.533Z,38.26
2017-04-20T12:23:31.461Z,39.2
2017-04-20T12:24:42.799Z,39.77
2017-04-20T12:25:54.429Z,39.86
2017-04-20T12:27:06.650Z,40.23
2017-04-20T12:28:19.163Z,40.52
2017-04-20T12:29:31.730Z,40.7
2017-04-20T12:30:43.959Z,41.06
2017-04-20T12:31:56.184Z,41.16
2017-04-20T12:33:08.092Z,41.93
2017-04-20T12:34:19.714Z,42.21
2017-04-20T12:35:31.662Z,42.79
2017-04-20T12:36:43.832Z,42.57
2017-04-20T12:37:55.787Z,43.24
2017-04-20T12:39:07.859Z,43.53
2017-04-20T12:40:20.105Z,43.62
2017-04-20T12:41:32.019Z,43.05
2017-04-20T12:42:44.571Z,43.33
2017-04-20T12:43:57.091Z,43.91
2017-04-20T12:45:09.335Z,44.08
2017-04-20T12:46:21.276Z,44.27
2017-04-20T12:47:33.546Z,44.87
2017-04-20T12:48:45.776Z,44.94
2017-04-20T12:49:57.401Z,45.13
2017-04-20T12:51:09.907Z,44.87
2017-04-20T12:52:22.136Z,44.84
2017-04-20T12:53:34.659Z,44.56
2017-04-20T12:54:46.898Z,44.65
2017-04-20T12:55:58.855Z,45.03
2017-04-20T12:57:11.078Z,45.42
2017-04-20T12:58:23.312Z,44.74
2017-04-20T12:59:36.040Z,44.27
2017-04-20T13:00:47.978Z,44.37
2017-04-20T13:01:59.904Z,44.46
2017-04-20T13:03:12.425Z,44.17
2017-04-20T13:04:24.350Z,43.7
2017-04-20T13:05:36.590Z,43.41
2017-04-20T13:06:49.141Z,43.96
2017-04-20T13:08:01.386Z,44.53
2017-04-20T13:09:13.907Z,45.01
2017-04-20T13:10:26.429Z,45.1
2017-04-20T13:11:38.352Z,45.39
2017-04-20T13:12:50.611Z,45.58
2017-04-20T13:14:03.136Z,45.29
2017-04-20T13:15:15.404Z,45.29
2017-04-20T13:16:27.625Z,45.29
2017-04-20T13:17:39.542Z,45.78
2017-04-20T13:18:51.755Z,46.06
2017-04-20T13:20:04.310Z,45.68
2017-04-20T13:21:16.831Z,45.29
2017-04-20T13:22:28.755Z,45.78
2017-04-20T13:23:41.281Z,46.25
2017-04-20T13:24:53.797Z,45.78
2017-04-20T13:26:05.738Z,45.87
2017-04-20T13:27:17.986Z,45.97
2017-04-20T13:28:30.509Z,45.75
2017-04-20T13:29:42.433Z,45.84
2017-04-20T13:30:54.347Z,46.61
2017-04-20T13:32:06.881Z,46.8
2017-04-20T13:33:19.400Z,47.28
2017-04-20T13:34:31.335Z,46.99
2017-04-20T13:35:43.546Z,47.08
2017-04-20T13:36:55.805Z,47.85
2017-04-20T13:38:08.359Z,48.99
2017-04-20T13:39:20.743Z,48.99
2017-04-20T13:40:33.147Z,48.99
2017-04-20T13:41:45.093Z,48.9
2017-04-20T13:42:56.738Z,48.8
2017-04-20T13:44:08.953Z,49.08
2017-04-20T13:45:21.177Z,49.08
2017-04-20T13:46:33.748Z,48.9
2017-04-20T13:47:45.696Z,49.35
2017-04-20T13:48:58.215Z,49.44
2017-04-20T13:50:10.765Z,49.63
2017-04-20T13:51:23.013Z,49.73
2017-04-20T13:52:35.528Z,49.73
2017-04-20T13:53:48.078Z,49.54
2017-04-20T13:55:00.302Z,49.63
2017-04-20T13:56:12.239Z,49.82
2017-04-20T13:57:23.870Z,50.11
2017-04-20T13:58:36.432Z,50.4
2017-04-20T13:59:48.862Z,50.68
2017-04-20T14:01:01.253Z,50.87
2017-04-20T14:02:12.870Z,50.97
2017-04-20T14:03:25.399Z,50.21
2017-04-20T14:04:37.619Z,50.3
2017-04-20T14:05:49.546Z,50.21
2017-04-20T14:07:02.082Z,50.11
2017-04-20T14:08:13.998Z,50.49
2017-04-20T14:09:26.210Z,50.4
2017-04-20T14:10:38.748Z,50.49
2017-04-20T14:11:50.362Z,50.4
2017-04-20T14:13:02.887Z,50.49
2017-04-20T14:14:15.104Z,50.01
2017-04-20T14:15:27.064Z,50.59
2017-04-20T14:16:39.625Z,50.49
2017-04-20T14:17:51.863Z,50.59
2017-04-20T14:19:04.371Z,50.61
2017-04-20T14:20:16.968Z,50.3
2017-04-20T14:21:29.254Z,49.76
2017-04-20T14:22:41.904Z,48.8
2017-04-20T14:23:54.453Z,48.58
2017-04-20T14:25:06.996Z,48.99
2017-04-20T14:26:19.510Z,48.99
2017-04-20T14:27:32.042Z,49.18
2017-04-20T14:28:44.586Z,48.8
2017-04-20T14:29:57.097Z,48.99
2017-04-20T14:31:09.633Z,48.42
2017-04-20T14:32:22.175Z,48.32
2017-04-20T14:33:34.393Z,48.71
2017-04-20T14:34:46.612Z,49.37
2017-04-20T14:35:59.128Z,49.56
2017-04-20T14:37:11.048Z,49.56
2017-04-20T14:38:23.473Z,49.85
2017-04-20T14:39:36.022Z,49.66
2017-04-20T14:40:48.244Z,48.99
2017-04-20T14:42:00.785Z,49.37
2017-04-20T14:43:13.019Z,50.04
2017-04-20T14:44:25.281Z,49.85
2017-04-20T14:45:37.826Z,49.76
2017-04-20T14:46:50.069Z,49.85
2017-04-20T14:48:02.618Z,50.21
2017-04-20T14:49:15.137Z,49.92
2017-04-20T14:50:27.702Z,49.73
2017-04-20T14:51:39.932Z,49.44
2017-04-20T14:52:52.482Z,49.73
2017-04-20T14:54:04.719Z,50.21
2017-04-20T14:55:17.232Z,51.06
2017-04-20T14:56:29.468Z,51.45
2017-04-20T14:57:41.715Z,52.3
2017-04-20T14:58:53.925Z,52.68
2017-04-20T15:00:06.506Z,52.97
2017-04-20T15:01:18.454Z,53.16
2017-04-20T15:02:30.972Z,53.64
2017-04-20T15:03:43.508Z,53.54
2017-04-20T15:04:56.030Z,53.8
2017-04-20T15:06:08.553Z,53.04
2017-04-20T15:07:20.796Z,53.13
2017-04-20T15:08:33.027Z,53.61
2017-04-20T15:09:45.539Z,53.7
2017-04-20T15:10:58.084Z,53.52
2017-04-20T15:12:10.612Z,54.08
2017-04-20T15:13:22.854Z,54.08
2017-04-20T15:14:35.105Z,54.37
2017-04-20T15:15:47.654Z,54.85
2017-04-20T15:16:59.899Z,54.56
2017-04-20T15:18:11.837Z,54.66
2017-04-20T15:19:24.506Z,55.22
2017-04-20T15:20:36.434Z,55.32
2017-04-20T15:21:48.972Z,54.94
2017-04-20T15:23:01.474Z,54.27
2017-04-20T15:24:13.998Z,54.75
2017-04-20T15:25:26.220Z,55.13
2017-04-20T15:26:38.730Z,54.56
2017-04-20T15:27:51.261Z,54.94
2017-04-20T15:29:02.909Z,55.32
2017-04-20T15:30:15.453Z,55.42
2017-04-20T15:31:27.698Z,55.22
2017-04-20T15:32:39.635Z,55.22